Latest Weather Observations for Goulburn Airport

IDN60901

Issued at 10:21 am EDT Wednesday 22 February 2017 (issued every 10 minutes, with the page automatically refreshed every 10 minutes)

About weather observations | Map of Canberra area stations | Latest observations for Canberra area | Other Formats
Station Details ID: 070330 Name: GOULBURN AIRPORT AWS Lat: -34.81 Lon: 149.73 Height: 640.0 m
Data from the previous 72 hours. | See also: Recent months at Goulburn Airport
Date/Time
EDT
Temp
°C
App
Temp
°C
Dew
Point
°C
Rel
Hum
%
Delta-T
°C
Wind Press
QNH
hPa
Press
MSL
hPa
Rain since
9am
mm
Dir  Spd
km/h
Gust
km/h
Spd
kts
Gust
kts
22/10:00am 22.6 19.9 12.8 54 5.8 NNE 19 28 10 15 1022.5 1019.8 0.0
22/09:30am 20.8 17.3 12.2 58 5.0 NNE 22 28 12 15 1022.5 1019.8 0.0
22/09:00am 19.7 18.8 13.6 68 3.6 N 11 19 6 10 1022.5 1019.8 0.0
22/08:30am 16.5 16.4 13.4 82 1.8 NNW 6 11 3 6 1022.4 1019.7 0.0
22/08:00am 14.0 14.7 13.5 97 0.3 WSW 2 7 1 4 1022.2 1019.5 0.0
22/07:30am 11.3 11.6 11.0 98 0.2 CALM 0 7 0 4 1022.0 1019.3 0.0
22/07:00am 9.5 7.9 8.9 96 0.3 WSW 7 9 4 5 1021.6 1018.9 0.0
22/06:30am 9.4 7.4 8.6 95 0.4 SW 9 11 5 6 1021.2 1018.5 0.0
22/06:00am 10.1 9.9 9.0 93 0.6 CALM 0 6 0 3 1020.9 1018.2 0.0
22/05:30am 11.3 10.8 10.7 96 0.3 NE 4 7 2 4 1020.7 1018.0 0.0
22/05:00am 10.4 10.0 9.6 95 0.4 SW 2 9 1 5 1020.8 1018.1 0.0
22/04:30am 10.7 9.4 10.1 96 0.3 SW 7 9 4 5 1020.7 1018.0 0.0
22/04:00am 10.3 9.1 9.5 95 0.4 SW 6 7 3 4 1020.8 1018.1 0.0
22/03:30am 10.9 9.6 10.1 95 0.4 S 7 9 4 5 1020.9 1018.2 0.0
22/03:00am 11.0 9.5 10.4 96 0.3 SSW 9 11 5 6 1021.2 1018.5 0.0
22/02:30am 10.4 9.1 9.3 93 0.6 SSW 6 7 3 4 1021.4 1018.8 0.0
22/02:00am 11.4 9.9 10.6 95 0.4 SSW 9 11 5 6 1021.7 1019.0 0.0
22/01:30am 10.9 9.5 9.5 91 0.7 SSW 7 9 4 5 1021.9 1019.2 0.0
22/01:00am 12.0 10.7 10.1 88 1.0 S 7 9 4 5 1022.2 1019.5 0.0
22/12:30am 14.7 14.2 12.6 87 1.2 ENE 7 9 4 5 1022.2 1019.5 0.0
22/12:00am 14.4 13.6 11.6 83 1.5 ESE 7 11 4 6 1022.6 1019.9 0.0
 
Date/Time
EDT
Temp
°C
App
Temp
°C
Dew
Point
°C
Rel
Hum
%
Delta-T
°C
Wind Press
QNH
hPa
Press
MSL
hPa
Rain since
9am
mm
Dir  Spd
km/h
Gust
km/h
Spd
kts
Gust
kts
21/11:30pm 15.4 14.4 12.3 82 1.7 ESE 9 17 5 9 1022.8 1020.2 0.0
21/11:00pm 15.0 13.5 12.0 82 1.7 E 11 15 6 8 1022.7 1020.1 0.0
21/10:30pm 14.9 13.8 11.9 82 1.7 ESE 9 17 5 9 1022.8 1020.2 0.0
21/10:00pm 15.1 13.2 11.7 80 1.9 ESE 13 17 7 9 1022.8 1020.2 0.0
21/09:30pm 15.5 13.6 11.7 78 2.1 ESE 13 17 7 9 1022.8 1020.2 0.0
21/09:00pm 16.0 14.0 11.6 75 2.4 ESE 13 19 7 10 1022.4 1019.7 0.0
21/08:30pm 17.0 13.9 11.7 71 3.0 E 19 24 10 13 1021.8 1019.1 0.0
21/08:00pm 17.3 14.4 12.2 72 2.9 ESE 19 24 10 13 1021.4 1018.8 0.0
21/07:30pm 18.6 15.0 11.9 65 3.8 E 22 30 12 16 1020.8 1018.1 0.0
21/07:00pm 19.8 15.0 11.8 60 4.6 ENE 28 37 15 20 1020.2 1017.5 0.0
21/06:30pm 20.9 16.1 11.5 55 5.4 ENE 28 39 15 21 1019.5 1016.8 0.0
21/06:00pm 22.4 18.0 10.5 47 6.7 ENE 24 35 13 19 1019.2 1016.5 0.0
21/05:30pm 23.3 19.0 10.7 45 7.2 E 24 37 13 20 1019.1 1016.4 0.0
21/05:00pm 25.1 22.2 8.1 34 9.3 ENE 13 26 7 14 1019.0 1016.3 0.0
21/04:30pm 25.2 20.9 1.3 21 11.7 NE 13 24 7 13 1018.9 1016.2 0.0
21/04:00pm 25.8 21.4 2.5 22 11.6 NE 15 22 8 12 1019.0 1016.3 0.0
21/03:30pm 25.3 22.1 3.3 24 11.1 E 9 19 5 10 1019.2 1016.5 0.0
21/03:00pm 24.5 20.3 1.4 22 11.2 NE 13 22 7 12 1019.5 1016.8 0.0
21/02:30pm 24.4 20.1 3.1 25 10.7 E 15 26 8 14 1019.9 1017.1 0.0
21/02:00pm 24.0 20.0 2.8 25 10.5 E 13 22 7 12 1020.1 1017.4 0.0
21/01:30pm 23.1 19.9 3.1 27 9.9 ENE 9 17 5 9 1020.6 1017.9 0.0
21/01:00pm 22.8 19.4 3.9 29 9.5 ENE 11 20 6 11 1020.8 1018.1 0.0
21/12:30pm 22.0 17.5 4.1 31 9.0 ENE 17 28 9 15 1021.0 1018.3 0.0
21/12:00pm 21.2 17.1 4.3 33 8.5 ENE 15 26 8 14 1021.6 1018.9 0.0
21/11:30am 20.2 16.2 4.7 36 7.8 NNE 15 22 8 12 1021.8 1019.1 0.0
21/11:00am 20.5 17.6 4.9 36 7.9 ENE 9 19 5 10 1022.0 1019.3 0.0
21/10:30am 18.5 16.4 6.0 44 6.4 E 6 19 3 10 1022.2 1019.5 0.0
21/10:00am 16.1 13.8 4.8 47 5.5 E 6 9 3 5 1022.3 1019.6 0.0
21/09:30am 13.9 12.1 3.7 50 4.8 N 2 7 1 4 1022.2 1019.5 0.0
21/09:00am 12.0 10.4 4.7 61 3.4 NNE 2 7 1 4 1022.1 1019.4 0.0
21/08:30am 9.3 8.0 4.3 71 2.3 CALM 0 0 0 0 1021.7 1019.0 0.0
21/08:00am 6.4 5.0 3.7 83 1.2 CALM 0 0 0 0 1021.3 1018.7 0.0
21/07:30am 3.5 1.9 2.6 94 0.4 CALM 0 0 0 0 1020.8 1018.1 0.0
21/07:00am 1.0 -1.0 -0.1 92 0.4 CALM 0 0 0 0 1020.4 1017.7 0.0
21/06:30am 1.0 -1.0 -0.1 92 0.4 CALM 0 0 0 0 1020.0 1017.3 0.0
21/06:00am 1.5 -0.4 0.3 92 0.5 CALM 0 0 0 0 1020.0 1017.3 0.0
21/05:30am 0.9 -1.2 -0.7 89 0.6 CALM 0 0 0 0 1019.6 1016.9 0.0
21/05:00am 2.0 0.1 0.5 90 0.6 CALM 0 0 0 0 1019.4 1016.7 0.0
21/04:30am 2.0 -0.6 0.7 91 0.5 SE 4 6 2 3 1019.5 1016.8 0.0
21/04:00am 1.9 -0.8 0.4 90 0.6 SE 4 7 2 4 1019.3 1016.6 0.0
21/03:30am 3.3 1.5 1.0 85 0.9 CALM 0 4 0 2 1019.1 1016.4 0.0
21/03:00am 3.6 1.0 1.0 83 1.0 N 4 9 2 5 1019.2 1016.5 0.0
21/02:30am 3.1 0.9 0.8 85 0.9 ENE 2 7 1 4 1019.2 1016.5 0.0
21/02:00am 4.4 1.4 1.8 83 1.1 ESE 7 7 4 4 1018.9 1016.2 0.0
21/01:30am 3.9 1.6 0.6 79 1.3 ESE 2 7 1 4 1019.2 1016.5 0.0
21/01:00am 6.0 4.4 2.6 79 1.5 CALM 0 0 0 0 1019.3 1016.6 0.0
21/12:30am 6.4 4.7 2.1 74 1.8 CALM 0 6 0 3 1019.4 1016.7 0.0
21/12:00am 6.7 5.0 1.6 70 2.1 CALM 0 0 0 0 1019.5 1016.8 0.0
 
Date/Time
EDT
Temp
°C
App
Temp
°C
Dew
Point
°C
Rel
Hum
%
Delta-T
°C
Wind Press
QNH
hPa
Press
MSL
hPa
Rain since
9am
mm
Dir  Spd
km/h
Gust
km/h
Spd
kts
Gust
kts
20/11:30pm 8.3 5.9 1.9 64 2.8 W 4 7 2 4 1019.3 1016.6 0.0
20/11:00pm 9.0 7.3 1.9 61 3.1 CALM 0 2 0 1 1019.0 1016.3 0.0
20/10:30pm 9.4 5.7 2.3 61 3.1 NNW 11 15 6 8 1018.6 1015.9 0.0
20/10:00pm 10.9 7.1 2.0 54 3.9 W 11 13 6 7 1018.3 1015.5 0.0
20/09:30pm 11.6 7.5 2.1 52 4.2 W 13 17 7 9 1017.6 1014.9 0.0
20/09:00pm 12.2 8.7 1.5 48 4.7 W 9 13 5 7 1017.0 1014.2 0.0
20/08:30pm 13.6 9.0 1.6 44 5.4 W 15 20 8 11 1016.3 1013.6 0.0
20/08:00pm 15.0 9.5 0.8 38 6.3 W 19 24 10 13 1015.8 1013.1 0.0
20/07:30pm 16.6 10.2 0.7 34 7.2 W 24 33 13 18 1015.3 1012.5 0.0
20/07:00pm 17.7 11.2 0.4 31 7.8 W 24 32 13 17 1014.9 1012.1 0.0
20/06:30pm 18.4 11.4 -0.4 28 8.4 W 26 37 14 20 1014.2 1011.4 0.0
20/06:00pm 19.2 11.6 0.3 28 8.6 W 30 41 16 22 1013.8 1011.0 0.0
20/05:30pm 19.3 11.0 -0.1 27 8.8 W 33 46 18 25 1013.5 1010.7 0.0
20/05:00pm 19.6 11.9 -0.4 26 9.1 W 30 41 16 22 1013.3 1010.5 0.0
20/04:30pm 19.2 9.7 -0.7 26 8.9 WNW 39 50 21 27 1012.7 1009.9 0.0
20/04:04pm 19.7 10.2 -0.9 25 9.2 WNW 39 59 21 32 1012.5 1009.7 0.0
20/04:00pm 18.9 9.4 -1.0 26 8.8 WNW 39 52 21 28 1012.4 1009.6 0.0
20/03:40pm 19.5 11.1 -1.0 25 9.2 W 33 54 18 29 1012.5 1009.7 0.0
20/03:30pm 19.5 10.8 -0.5 26 9.0 W 35 52 19 28 1012.5 1009.7 0.0
20/03:00pm 19.8 10.8 0.3 27 9.0 W 37 50 20 27 1012.4 1009.6 0.0
20/02:30pm 19.3 10.6 -0.7 26 9.0 W 35 57 19 31 1012.5 1009.7 0.0
20/02:04pm 19.4 11.1 -0.1 27 8.9 W 33 56 18 30 1012.7 1009.9 0.0
20/02:00pm 18.8 10.2 -0.1 28 8.6 W 35 52 19 28 1012.7 1009.9 0.0
20/01:50pm 19.6 11.1 0.6 28 8.8 W 35 59 19 32 1012.5 1009.7 0.0
20/01:30pm 17.5 8.5 0.2 31 7.8 W 37 54 20 29 1012.6 1009.8 0.0
20/01:00pm 17.6 7.8 -0.2 30 8.0 WNW 41 52 22 28 1012.6 1009.8 0.0
20/12:30pm 16.9 8.8 1.0 34 7.2 W 33 48 18 26 1012.6 1009.8 0.0
20/12:16pm 16.6 8.0 0.3 33 7.3 WNW 35 54 19 29 1012.6 1009.8 0.0
20/12:00pm 15.8 6.9 0.8 36 6.7 WNW 37 50 20 27 1012.7 1009.9 0.0
20/11:35am 15.7 6.9 1.4 38 6.5 W 37 61 20 33 1012.7 1009.9 0.0
20/11:30am 15.5 6.7 1.6 39 6.3 W 37 50 20 27 1012.9 1010.2 0.0
20/11:00am 15.0 5.9 1.9 41 6.0 W 39 52 21 28 1012.8 1010.0 0.0
20/10:30am 13.6 3.8 2.5 47 5.1 W 43 54 23 29 1012.8 1010.0 0.0
20/10:10am 13.0 4.7 2.0 47 4.9 W 35 54 19 29 1012.8 1010.0 0.0
20/10:00am 13.2 4.3 3.0 50 4.7 WNW 39 52 21 28 1012.9 1010.2 0.0
20/09:30am 11.9 3.9 3.7 57 3.8 WNW 35 48 19 26 1013.0 1010.3 0.0
20/09:00am 11.2 3.7 3.7 60 3.5 W 32 41 17 22 1013.0 1010.3 0.0
20/08:30am 10.3 4.4 4.0 65 2.9 W 24 32 13 17 1012.9 1010.2 0.0
20/08:00am 9.4 3.5 4.0 69 2.5 W 24 35 13 19 1012.6 1009.8 0.0
20/07:30am 8.6 3.6 3.8 72 2.2 WNW 19 24 10 13 1012.2 1009.4 0.0
20/07:00am 7.6 3.0 3.5 75 1.8 WNW 17 22 9 12 1011.7 1008.9 0.0
20/06:30am 7.7 1.7 3.4 74 1.9 WNW 24 33 13 18 1011.0 1008.2 0.0
20/06:00am 7.9 1.9 3.6 74 1.9 WNW 24 32 13 17 1010.8 1008.0 0.0
20/05:30am 8.4 2.8 3.5 71 2.2 W 22 33 12 18 1010.6 1007.8 0.0
20/05:00am 8.7 3.8 3.9 72 2.2 W 19 28 10 15 1010.3 1007.5 0.0
20/04:30am 9.0 4.0 4.8 75 1.9 WNW 20 24 11 13 1010.1 1007.2 0.0
20/04:00am 10.2 4.5 5.0 70 2.4 W 24 32 13 17 1010.1 1007.2 0.0
20/03:30am 10.4 5.3 5.8 73 2.2 W 22 33 12 18 1009.9 1007.0 0.0
20/03:00am 11.2 6.5 3.3 58 3.6 W 17 26 9 14 1010.0 1007.1 0.0
20/02:30am 11.4 5.9 1.6 51 4.3 WNW 20 28 11 15 1009.5 1006.7 0.0
20/02:00am 10.6 6.0 1.4 53 4.0 NW 15 19 8 10 1009.4 1006.6 0.0
20/01:30am 10.2 5.6 1.3 54 3.8 NW 15 17 8 9 1009.3 1006.5 0.0
20/01:00am 9.5 5.6 0.9 55 3.7 WNW 11 13 6 7 1009.5 1006.7 0.0
20/12:30am 11.3 6.6 0.7 48 4.6 WNW 15 17 8 9 1009.7 1006.9 0.0
20/12:00am 11.3 6.6 0.7 48 4.6 WNW 15 17 8 9 1009.9 1007.0 0.0
 
Date/Time
EDT
Temp
°C
App
Temp
°C
Dew
Point
°C
Rel
Hum
%
Delta-T
°C
Wind Press
QNH
hPa
Press
MSL
hPa
Rain since
9am
mm
Dir  Spd
km/h
Gust
km/h
Spd
kts
Gust
kts
19/11:30pm 11.6 6.9 0.7 47 4.7 WNW 15 19 8 10 1009.9 1007.0 0.0
19/11:00pm 11.5 6.3 0.3 46 4.8 WNW 17 17 9 9 1009.7 1006.9 0.0
19/10:30pm 11.4 6.9 -0.1 45 4.9 WNW 13 15 7 8 1009.4 1006.6 0.0
19/10:00pm 12.5 8.8 0.0 42 5.4 NNW 9 11 5 6 1009.6 1006.8 0.0
19/09:30pm 12.8 8.8 0.2 42 5.4 WNW 11 13 6 7 1009.6 1006.8 0.0
19/09:00pm 13.2 9.4 -0.4 39 5.8 W 9 11 5 6 1009.5 1006.7 0.0
19/08:30pm 15.2 10.3 -0.5 34 6.8 W 15 19 8 10 1009.4 1006.6 0.0
19/08:00pm 16.3 11.0 -0.8 31 7.5 W 17 20 9 11 1009.0 1006.2 0.0
19/07:30pm 18.4 10.9 -1.4 26 8.7 WNW 28 37 15 20 1008.7 1005.8 0.0
19/07:00pm 19.5 11.3 -1.0 25 9.2 WNW 32 41 17 22 1008.1 1005.3 0.0
19/06:30pm 20.3 12.5 -0.9 24 9.5 W 30 39 16 21 1007.7 1004.9 0.0
19/06:00pm 20.8 13.3 -1.7 22 10.1 W 28 39 15 21 1007.7 1004.9 0.0
19/05:30pm 21.2 14.0 -2.0 21 10.3 WNW 26 37 14 20 1007.6 1004.8 0.0
19/05:02pm 21.7 13.7 -2.2 20 10.6 WNW 30 48 16 26 1007.6 1004.8 0.0
19/05:00pm 21.4 13.0 -2.5 20 10.6 WNW 32 48 17 26 1007.7 1004.9 0.0
19/04:53pm 21.8 13.7 -2.8 19 10.8 WNW 30 48 16 26 1007.6 1004.8 0.0
19/04:30pm 21.6 13.2 -2.3 20 10.6 WNW 32 46 17 25 1007.7 1004.9 0.0
19/04:00pm 22.2 14.2 -2.5 19 11.0 WNW 30 46 16 25 1008.0 1005.2 0.0
19/03:41pm 22.1 14.5 -1.9 20 10.8 WNW 28 46 15 25 1008.0 1005.2 0.0
19/03:30pm 21.8 14.2 -2.1 20 10.6 WNW 28 41 15 22 1008.1 1005.3 0.0
19/03:05pm 21.7 13.7 -2.2 20 10.6 WNW 30 48 16 26 1008.4 1005.5 0.0
19/03:00pm 21.4 12.7 -3.1 19 10.7 WNW 33 48 18 26 1008.6 1005.7 0.0
19/02:30pm 21.1 13.4 -2.7 20 10.4 NW 28 37 15 20 1008.7 1005.8 0.0
19/02:00pm 21.8 14.0 -0.8 22 10.4 WNW 30 43 16 23 1009.0 1006.2 0.0
19/01:30pm 20.7 13.6 -1.1 23 9.8 WNW 26 41 14 22 1009.2 1006.4 0.0
19/01:00pm 20.8 13.3 -1.7 22 10.0 WNW 28 48 15 26 1009.4 1006.6 0.0
19/12:58pm 21.1 13.7 -0.8 23 9.9 NW 28 48 15 26 1009.3 1006.5 0.0
19/12:30pm 20.8 14.7 0.1 25 9.5 WNW 22 32 12 17 1009.6 1006.8 0.0
19/12:00pm 19.2 12.6 -0.7 26 8.9 NW 24 35 13 19 1009.9 1007.0 0.0
19/11:30am 18.7 12.1 -0.7 27 8.7 NW 24 32 13 17 1010.3 1007.5 0.0
19/11:00am 18.0 12.2 0.2 30 8.1 W 20 32 11 17 1010.6 1007.8 0.0
19/10:30am 18.2 12.7 0.4 30 8.1 W 19 33 10 18 1010.7 1007.9 0.0

Latest Capital City Observations: Canberra | Sydney | Melbourne | Brisbane | Adelaide | Perth | Hobart | Darwin

Other Formats:

Comma delimited format used in spreadsheet applications
http://www.bom.gov.au/fwo/IDN60903/IDN60903.95716.axf

JavaScript Object Notation format (JSON) in row-major order
http://www.bom.gov.au/fwo/IDN60903/IDN60903.95716.json